LHBC 231245Z 29013KT 9999 FEW046 16/05 Q1018        

LHBP 231400Z 28014KT 9999 FEW043 BKN160 13/06 Q1017 NOSIG        

LHDC 231345Z 25016KT 9999 FEW043 BKN083 BKN200 15/03 Q1015 NOSIG        

LHKE 231345Z 30017KT CAVOK 14/04 Q1018 NOSIG RMK BLU        

LHPA 231345Z 23004KT CAVOK 13/05 Q1019 NOSIG RMK BLU        

LHPP 231345Z 26006KT 9999 FEW040 BKN200 15/06 Q1020        

LHPR 231345Z 24011KT 200V260 CAVOK 13/06 Q1018 RMK BLU        

LHSM 231345Z 22007KT CAVOK 15/08 Q1019 NOSIG        

LHSN 231345Z 29010KT 250V330 CAVOK 14/03 Q1017 NOSIG RMK BLU        

LHUD 231345Z 29011KT 9999 FEW046 BKN200 16/05 Q1019